sensor_id;sensor_type;location;lat;lon;timestamp;temperature;humidity
44647;DHT22;56315;-33.902;151.160;2022-10-31T00:00:25;29.10;82.50
44647;DHT22;56315;-33.902;151.160;2022-10-31T00:02:52;29.60;82.10
44647;DHT22;56315;-33.902;151.160;2022-10-31T00:05:19;29.70;82.20
44647;DHT22;56315;-33.902;151.160;2022-10-31T00:07:46;29.90;82.20
44647;DHT22;56315;-33.902;151.160;2022-10-31T00:10:12;30.30;82.00
44647;DHT22;56315;-33.902;151.160;2022-10-31T00:12:39;30.70;80.80
44647;DHT22;56315;-33.902;151.160;2022-10-31T00:15:06;30.80;80.40
44647;DHT22;56315;-33.902;151.160;2022-10-31T00:17:34;30.60;80.70
44647;DHT22;56315;-33.902;151.160;2022-10-31T00:20:01;30.60;80.80
44647;DHT22;56315;-33.902;151.160;2022-10-31T00:22:28;30.50;81.00
44647;DHT22;56315;-33.902;151.160;2022-10-31T00:24:54;30.30;81.60
44647;DHT22;56315;-33.902;151.160;2022-10-31T00:27:21;30.10;82.30
44647;DHT22;56315;-33.902;151.160;2022-10-31T00:29:48;29.80;81.50
44647;DHT22;56315;-33.902;151.160;2022-10-31T00:32:14;29.50;82.20
44647;DHT22;56315;-33.902;151.160;2022-10-31T00:34:41;29.20;83.50
44647;DHT22;56315;-33.902;151.160;2022-10-31T00:37:08;29.10;83.80
44647;DHT22;56315;-33.902;151.160;2022-10-31T00:39:35;29.00;84.00
44647;DHT22;56315;-33.902;151.160;2022-10-31T00:42:01;28.90;84.60
44647;DHT22;56315;-33.902;151.160;2022-10-31T00:44:28;29.30;85.40
44647;DHT22;56315;-33.902;151.160;2022-10-31T00:46:54;29.60;83.80
44647;DHT22;56315;-33.902;151.160;2022-10-31T00:49:21;30.00;83.30
44647;DHT22;56315;-33.902;151.160;2022-10-31T00:51:48;30.20;83.50
44647;DHT22;56315;-33.902;151.160;2022-10-31T00:54:14;30.30;83.60
44647;DHT22;56315;-33.902;151.160;2022-10-31T00:56:41;30.40;86.90
44647;DHT22;56315;-33.902;151.160;2022-10-31T00:59:08;30.40;88.10
44647;DHT22;56315;-33.902;151.160;2022-10-31T01:01:34;30.20;88.10
44647;DHT22;56315;-33.902;151.160;2022-10-31T01:04:01;29.90;90.00
44647;DHT22;56315;-33.902;151.160;2022-10-31T01:06:28;29.80;90.30
44647;DHT22;56315;-33.902;151.160;2022-10-31T01:08:54;29.80;90.40
44647;DHT22;56315;-33.902;151.160;2022-10-31T01:11:21;29.90;90.60
44647;DHT22;56315;-33.902;151.160;2022-10-31T01:13:52;30.00;85.70
44647;DHT22;56315;-33.902;151.160;2022-10-31T01:16:22;30.20;85.20
44647;DHT22;56315;-33.902;151.160;2022-10-31T01:18:49;30.60;88.70
44647;DHT22;56315;-33.902;151.160;2022-10-31T01:21:17;31.00;84.80
44647;DHT22;56315;-33.902;151.160;2022-10-31T01:23:44;31.40;83.40
44647;DHT22;56315;-33.902;151.160;2022-10-31T01:26:21;31.60;83.20
44647;DHT22;56315;-33.902;151.160;2022-10-31T01:28:49;31.70;83.50
44647;DHT22;56315;-33.902;151.160;2022-10-31T01:31:17;31.70;82.80
44647;DHT22;56315;-33.902;151.160;2022-10-31T01:33:43;31.40;82.70
44647;DHT22;56315;-33.902;151.160;2022-10-31T01:38:40;31.10;83.80
44647;DHT22;56315;-33.902;151.160;2022-10-31T01:41:07;30.90;85.10
44647;DHT22;56315;-33.902;151.160;2022-10-31T01:43:42;30.70;86.60
44647;DHT22;56315;-33.902;151.160;2022-10-31T01:46:08;30.50;85.00
44647;DHT22;56315;-33.902;151.160;2022-10-31T01:48:35;30.30;85.80
44647;DHT22;56315;-33.902;151.160;2022-10-31T01:51:02;30.30;86.80
44647;DHT22;56315;-33.902;151.160;2022-10-31T01:53:30;30.30;87.10
44647;DHT22;56315;-33.902;151.160;2022-10-31T01:55:57;30.40;88.70
44647;DHT22;56315;-33.902;151.160;2022-10-31T01:58:27;30.30;88.00
44647;DHT22;56315;-33.902;151.160;2022-10-31T02:00:56;30.30;87.90
44647;DHT22;56315;-33.902;151.160;2022-10-31T02:03:23;30.30;88.70
44647;DHT22;56315;-33.902;151.160;2022-10-31T02:05:54;30.30;88.90
44647;DHT22;56315;-33.902;151.160;2022-10-31T02:08:23;30.30;89.30
44647;DHT22;56315;-33.902;151.160;2022-10-31T02:10:51;30.40;88.20
44647;DHT22;56315;-33.902;151.160;2022-10-31T02:13:18;30.60;84.90
44647;DHT22;56315;-33.902;151.160;2022-10-31T02:15:46;30.60;83.30
44647;DHT22;56315;-33.902;151.160;2022-10-31T02:18:14;30.50;81.50
44647;DHT22;56315;-33.902;151.160;2022-10-31T02:31:17;29.10;88.10
44647;DHT22;56315;-33.902;151.160;2022-10-31T02:34:10;28.90;89.50
44647;DHT22;56315;-33.902;151.160;2022-10-31T02:36:42;28.80;90.30
44647;DHT22;56315;-33.902;151.160;2022-10-31T02:39:22;28.70;91.30
44647;DHT22;56315;-33.902;151.160;2022-10-31T02:42:00;28.60;92.20
44647;DHT22;56315;-33.902;151.160;2022-10-31T02:49:44;28.30;92.20
44647;DHT22;56315;-33.902;151.160;2022-10-31T02:52:23;28.30;93.40
44647;DHT22;56315;-33.902;151.160;2022-10-31T02:54:50;28.30;93.50
44647;DHT22;56315;-33.902;151.160;2022-10-31T02:57:19;28.20;93.30
44647;DHT22;56315;-33.902;151.160;2022-10-31T02:59:47;28.20;94.60
44647;DHT22;56315;-33.902;151.160;2022-10-31T03:02:22;28.20;94.30
44647;DHT22;56315;-33.902;151.160;2022-10-31T03:07:23;28.10;96.40
44647;DHT22;56315;-33.902;151.160;2022-10-31T03:10:10;28.00;95.90
44647;DHT22;56315;-33.902;151.160;2022-10-31T03:12:45;27.90;97.30
44647;DHT22;56315;-33.902;151.160;2022-10-31T03:15:25;27.90;97.60
44647;DHT22;56315;-33.902;151.160;2022-10-31T03:17:58;27.80;98.20
44647;DHT22;56315;-33.902;151.160;2022-10-31T03:20:29;27.70;98.50
44647;DHT22;56315;-33.902;151.160;2022-10-31T03:22:56;27.60;99.10
44647;DHT22;56315;-33.902;151.160;2022-10-31T03:25:23;27.60;99.70
44647;DHT22;56315;-33.902;151.160;2022-10-31T03:27:50;27.50;99.30
44647;DHT22;56315;-33.902;151.160;2022-10-31T03:30:17;27.60;99.90
44647;DHT22;56315;-33.902;151.160;2022-10-31T03:32:45;27.60;99.70
44647;DHT22;56315;-33.902;151.160;2022-10-31T03:35:13;27.80;99.80
44647;DHT22;56315;-33.902;151.160;2022-10-31T03:37:42;27.80;99.90
44647;DHT22;56315;-33.902;151.160;2022-10-31T03:40:10;27.90;99.70
44647;DHT22;56315;-33.902;151.160;2022-10-31T03:42:39;27.90;99.90
44647;DHT22;56315;-33.902;151.160;2022-10-31T03:45:40;27.90;99.80
44647;DHT22;56315;-33.902;151.160;2022-10-31T03:47:59;27.80;99.70
44647;DHT22;56315;-33.902;151.160;2022-10-31T03:50:28;27.80;99.90
44647;DHT22;56315;-33.902;151.160;2022-10-31T03:52:58;27.70;99.90
44647;DHT22;56315;-33.902;151.160;2022-10-31T03:55:31;27.70;99.80
44647;DHT22;56315;-33.902;151.160;2022-10-31T03:58:03;27.70;99.90
44647;DHT22;56315;-33.902;151.160;2022-10-31T04:00:33;27.80;99.60
44647;DHT22;56315;-33.902;151.160;2022-10-31T04:03:14;28.00;99.30
44647;DHT22;56315;-33.902;151.160;2022-10-31T04:05:43;28.10;99.20
44647;DHT22;56315;-33.902;151.160;2022-10-31T04:08:12;28.30;99.90
44647;DHT22;56315;-33.902;151.160;2022-10-31T04:10:41;28.40;99.20
44647;DHT22;56315;-33.902;151.160;2022-10-31T04:13:14;28.40;98.40
44647;DHT22;56315;-33.902;151.160;2022-10-31T04:15:43;28.50;97.40
44647;DHT22;56315;-33.902;151.160;2022-10-31T04:18:11;28.70;97.30
44647;DHT22;56315;-33.902;151.160;2022-10-31T04:20:38;28.80;97.40
44647;DHT22;56315;-33.902;151.160;2022-10-31T04:23:10;28.90;96.20
44647;DHT22;56315;-33.902;151.160;2022-10-31T04:25:39;28.90;95.70
44647;DHT22;56315;-33.902;151.160;2022-10-31T04:28:05;28.80;95.70
44647;DHT22;56315;-33.902;151.160;2022-10-31T04:30:32;28.70;95.60
44647;DHT22;56315;-33.902;151.160;2022-10-31T04:32:59;28.70;95.60
44647;DHT22;56315;-33.902;151.160;2022-10-31T04:35:25;28.60;95.60
44647;DHT22;56315;-33.902;151.160;2022-10-31T04:37:52;28.60;95.80
44647;DHT22;56315;-33.902;151.160;2022-10-31T04:40:18;28.40;95.00
44647;DHT22;56315;-33.902;151.160;2022-10-31T04:42:45;28.00;95.00
44647;DHT22;56315;-33.902;151.160;2022-10-31T04:45:12;27.90;95.30
44647;DHT22;56315;-33.902;151.160;2022-10-31T04:47:38;27.80;95.80
44647;DHT22;56315;-33.902;151.160;2022-10-31T04:50:05;27.60;95.90
44647;DHT22;56315;-33.902;151.160;2022-10-31T04:52:32;27.50;96.10
44647;DHT22;56315;-33.902;151.160;2022-10-31T04:54:59;27.30;96.40
44647;DHT22;56315;-33.902;151.160;2022-10-31T04:57:25;27.30;96.50
44647;DHT22;56315;-33.902;151.160;2022-10-31T04:59:52;27.30;96.80
44647;DHT22;56315;-33.902;151.160;2022-10-31T05:02:19;27.40;96.80
44647;DHT22;56315;-33.902;151.160;2022-10-31T05:04:45;27.50;96.70
44647;DHT22;56315;-33.902;151.160;2022-10-31T05:07:12;27.50;97.00
44647;DHT22;56315;-33.902;151.160;2022-10-31T05:09:39;27.60;96.70
44647;DHT22;56315;-33.902;151.160;2022-10-31T05:12:05;27.60;97.10
44647;DHT22;56315;-33.902;151.160;2022-10-31T05:14:32;27.50;97.00
44647;DHT22;56315;-33.902;151.160;2022-10-31T05:16:59;27.50;96.80
44647;DHT22;56315;-33.902;151.160;2022-10-31T05:19:25;27.60;97.00
44647;DHT22;56315;-33.902;151.160;2022-10-31T05:21:52;27.70;96.70
44647;DHT22;56315;-33.902;151.160;2022-10-31T05:24:18;27.70;96.80
44647;DHT22;56315;-33.902;151.160;2022-10-31T05:26:48;27.70;96.90
44647;DHT22;56315;-33.902;151.160;2022-10-31T05:29:14;27.80;96.90
44647;DHT22;56315;-33.902;151.160;2022-10-31T05:31:41;27.70;96.90
44647;DHT22;56315;-33.902;151.160;2022-10-31T05:34:08;27.70;97.00
44647;DHT22;56315;-33.902;151.160;2022-10-31T05:36:34;27.70;97.10
44647;DHT22;56315;-33.902;151.160;2022-10-31T05:39:01;27.70;97.30
44647;DHT22;56315;-33.902;151.160;2022-10-31T05:41:27;27.80;97.00
44647;DHT22;56315;-33.902;151.160;2022-10-31T05:43:54;27.90;97.10
44647;DHT22;56315;-33.902;151.160;2022-10-31T05:46:21;27.90;96.80
44647;DHT22;56315;-33.902;151.160;2022-10-31T05:48:47;27.90;96.80
44647;DHT22;56315;-33.902;151.160;2022-10-31T05:51:14;27.80;97.00
44647;DHT22;56315;-33.902;151.160;2022-10-31T05:53:41;27.80;96.70
44647;DHT22;56315;-33.902;151.160;2022-10-31T05:56:07;27.80;96.90
44647;DHT22;56315;-33.902;151.160;2022-10-31T05:58:34;27.80;97.10
44647;DHT22;56315;-33.902;151.160;2022-10-31T06:01:01;27.90;96.70
44647;DHT22;56315;-33.902;151.160;2022-10-31T06:03:27;28.00;96.10
44647;DHT22;56315;-33.902;151.160;2022-10-31T06:05:54;28.10;95.90
44647;DHT22;56315;-33.902;151.160;2022-10-31T06:08:20;28.20;95.60
44647;DHT22;56315;-33.902;151.160;2022-10-31T06:10:47;28.20;96.10
44647;DHT22;56315;-33.902;151.160;2022-10-31T06:13:14;28.30;95.90
44647;DHT22;56315;-33.902;151.160;2022-10-31T06:15:41;28.30;95.70
44647;DHT22;56315;-33.902;151.160;2022-10-31T06:18:08;28.30;95.90
44647;DHT22;56315;-33.902;151.160;2022-10-31T06:20:35;28.30;95.70
44647;DHT22;56315;-33.902;151.160;2022-10-31T06:23:02;28.40;95.60
44647;DHT22;56315;-33.902;151.160;2022-10-31T06:25:29;28.40;95.40
44647;DHT22;56315;-33.902;151.160;2022-10-31T06:27:55;28.50;94.90
44647;DHT22;56315;-33.902;151.160;2022-10-31T06:30:22;28.40;94.70
44647;DHT22;56315;-33.902;151.160;2022-10-31T06:32:49;28.40;94.80
44647;DHT22;56315;-33.902;151.160;2022-10-31T06:35:16;28.30;94.90
44647;DHT22;56315;-33.902;151.160;2022-10-31T06:37:42;28.20;95.00
44647;DHT22;56315;-33.902;151.160;2022-10-31T06:40:09;28.20;95.10
44647;DHT22;56315;-33.902;151.160;2022-10-31T06:42:36;28.10;95.30
44647;DHT22;56315;-33.902;151.160;2022-10-31T06:45:03;28.00;95.40
44647;DHT22;56315;-33.902;151.160;2022-10-31T06:47:29;27.90;95.50
44647;DHT22;56315;-33.902;151.160;2022-10-31T06:49:56;27.80;95.80
44647;DHT22;56315;-33.902;151.160;2022-10-31T06:52:23;27.70;96.00
44647;DHT22;56315;-33.902;151.160;2022-10-31T06:54:49;27.60;96.40
44647;DHT22;56315;-33.902;151.160;2022-10-31T06:57:16;27.60;96.30
44647;DHT22;56315;-33.902;151.160;2022-10-31T06:59:42;27.60;96.50
44647;DHT22;56315;-33.902;151.160;2022-10-31T07:02:09;27.50;96.60
44647;DHT22;56315;-33.902;151.160;2022-10-31T07:04:36;27.50;96.50
44647;DHT22;56315;-33.902;151.160;2022-10-31T07:07:03;27.40;96.70
44647;DHT22;56315;-33.902;151.160;2022-10-31T07:09:30;27.30;96.50
44647;DHT22;56315;-33.902;151.160;2022-10-31T07:11:56;27.30;96.80
44647;DHT22;56315;-33.902;151.160;2022-10-31T07:14:23;27.20;96.70
44647;DHT22;56315;-33.902;151.160;2022-10-31T07:16:50;27.20;96.90
44647;DHT22;56315;-33.902;151.160;2022-10-31T07:19:17;27.20;96.90
44647;DHT22;56315;-33.902;151.160;2022-10-31T07:21:43;27.20;96.80
44647;DHT22;56315;-33.902;151.160;2022-10-31T07:24:10;27.20;97.00
44647;DHT22;56315;-33.902;151.160;2022-10-31T07:26:37;27.20;96.80
44647;DHT22;56315;-33.902;151.160;2022-10-31T07:29:03;27.20;96.70
44647;DHT22;56315;-33.902;151.160;2022-10-31T07:31:30;27.10;96.90
44647;DHT22;56315;-33.902;151.160;2022-10-31T07:33:56;27.10;97.00
44647;DHT22;56315;-33.902;151.160;2022-10-31T07:36:23;27.10;97.00
44647;DHT22;56315;-33.902;151.160;2022-10-31T07:38:50;27.10;97.10
44647;DHT22;56315;-33.902;151.160;2022-10-31T07:41:16;27.10;97.00
44647;DHT22;56315;-33.902;151.160;2022-10-31T07:43:43;27.00;97.10
44647;DHT22;56315;-33.902;151.160;2022-10-31T07:46:10;27.00;97.20
44647;DHT22;56315;-33.902;151.160;2022-10-31T07:48:37;27.00;97.20
44647;DHT22;56315;-33.902;151.160;2022-10-31T07:51:03;27.00;97.30
44647;DHT22;56315;-33.902;151.160;2022-10-31T07:53:30;27.00;97.30
44647;DHT22;56315;-33.902;151.160;2022-10-31T07:55:57;27.00;97.30
44647;DHT22;56315;-33.902;151.160;2022-10-31T07:58:24;27.00;97.40
44647;DHT22;56315;-33.902;151.160;2022-10-31T08:00:51;27.00;97.50
44647;DHT22;56315;-33.902;151.160;2022-10-31T08:03:18;27.00;97.50
44647;DHT22;56315;-33.902;151.160;2022-10-31T08:05:45;26.90;97.50
44647;DHT22;56315;-33.902;151.160;2022-10-31T08:08:12;26.90;98.00
44647;DHT22;56315;-33.902;151.160;2022-10-31T08:10:39;26.90;97.70
44647;DHT22;56315;-33.902;151.160;2022-10-31T08:13:07;26.90;97.70
44647;DHT22;56315;-33.902;151.160;2022-10-31T08:15:34;26.80;97.80
44647;DHT22;56315;-33.902;151.160;2022-10-31T08:18:04;26.90;97.90
44647;DHT22;56315;-33.902;151.160;2022-10-31T08:20:30;26.80;97.90
44647;DHT22;56315;-33.902;151.160;2022-10-31T08:23:01;26.80;98.10
44647;DHT22;56315;-33.902;151.160;2022-10-31T08:25:29;26.80;98.10
44647;DHT22;56315;-33.902;151.160;2022-10-31T08:27:56;26.80;98.20
44647;DHT22;56315;-33.902;151.160;2022-10-31T08:30:24;26.80;98.40
44647;DHT22;56315;-33.902;151.160;2022-10-31T08:32:58;26.70;98.40
44647;DHT22;56315;-33.902;151.160;2022-10-31T08:35:24;26.70;98.40
44647;DHT22;56315;-33.902;151.160;2022-10-31T08:37:55;26.70;98.50
44647;DHT22;56315;-33.902;151.160;2022-10-31T08:40:22;26.70;98.70
44647;DHT22;56315;-33.902;151.160;2022-10-31T08:43:02;26.60;98.70
44647;DHT22;56315;-33.902;151.160;2022-10-31T08:45:29;26.60;98.70
44647;DHT22;56315;-33.902;151.160;2022-10-31T08:48:00;26.60;98.70
44647;DHT22;56315;-33.902;151.160;2022-10-31T08:50:27;26.60;98.90
44647;DHT22;56315;-33.902;151.160;2022-10-31T08:52:59;26.60;98.90
44647;DHT22;56315;-33.902;151.160;2022-10-31T08:55:25;26.60;99.00
44647;DHT22;56315;-33.902;151.160;2022-10-31T08:57:56;26.50;99.10
44647;DHT22;56315;-33.902;151.160;2022-10-31T09:00:23;26.50;99.00
44647;DHT22;56315;-33.902;151.160;2022-10-31T09:02:56;26.50;99.00
44647;DHT22;56315;-33.902;151.160;2022-10-31T09:05:23;26.50;99.10
44647;DHT22;56315;-33.902;151.160;2022-10-31T09:07:50;26.40;99.10
44647;DHT22;56315;-33.902;151.160;2022-10-31T09:10:17;26.40;99.20
44647;DHT22;56315;-33.902;151.160;2022-10-31T09:12:43;26.40;99.40
44647;DHT22;56315;-33.902;151.160;2022-10-31T09:15:10;26.40;99.40
44647;DHT22;56315;-33.902;151.160;2022-10-31T09:17:37;26.30;99.60
44647;DHT22;56315;-33.902;151.160;2022-10-31T09:20:03;26.30;99.70
44647;DHT22;56315;-33.902;151.160;2022-10-31T09:22:30;26.30;99.80
44647;DHT22;56315;-33.902;151.160;2022-10-31T09:24:57;26.30;99.90
44647;DHT22;56315;-33.902;151.160;2022-10-31T09:27:24;26.20;99.90
44647;DHT22;56315;-33.902;151.160;2022-10-31T09:29:50;26.10;99.90
44647;DHT22;56315;-33.902;151.160;2022-10-31T09:32:17;25.90;99.90
44647;DHT22;56315;-33.902;151.160;2022-10-31T09:34:44;25.70;99.90
44647;DHT22;56315;-33.902;151.160;2022-10-31T09:37:10;25.30;99.90
44647;DHT22;56315;-33.902;151.160;2022-10-31T09:39:37;25.10;99.90
44647;DHT22;56315;-33.902;151.160;2022-10-31T09:42:10;24.90;99.90
44647;DHT22;56315;-33.902;151.160;2022-10-31T09:52:33;24.70;99.90
44647;DHT22;56315;-33.902;151.160;2022-10-31T09:55:04;24.70;99.90
44647;DHT22;56315;-33.902;151.160;2022-10-31T09:57:35;24.70;99.90
44647;DHT22;56315;-33.902;151.160;2022-10-31T10:00:05;24.60;99.90
44647;DHT22;56315;-33.902;151.160;2022-10-31T10:05:00;24.50;99.90
44647;DHT22;56315;-33.902;151.160;2022-10-31T10:09:57;24.30;99.90
44647;DHT22;56315;-33.902;151.160;2022-10-31T10:17:51;24.30;99.90
44647;DHT22;56315;-33.902;151.160;2022-10-31T10:25:37;24.30;99.90
44647;DHT22;56315;-33.902;151.160;2022-10-31T10:33:27;24.30;99.90
44647;DHT22;56315;-33.902;151.160;2022-10-31T10:35:52;24.20;99.90
44647;DHT22;56315;-33.902;151.160;2022-10-31T10:41:02;24.30;99.90
44647;DHT22;56315;-33.902;151.160;2022-10-31T10:43:35;24.20;99.90
44647;DHT22;56315;-33.902;151.160;2022-10-31T10:46:13;24.20;99.90
44647;DHT22;56315;-33.902;151.160;2022-10-31T10:49:04;24.20;99.90
44647;DHT22;56315;-33.902;151.160;2022-10-31T10:51:46;24.10;99.90
44647;DHT22;56315;-33.902;151.160;2022-10-31T10:54:16;24.00;99.90
44647;DHT22;56315;-33.902;151.160;2022-10-31T10:56:56;23.90;99.90
44647;DHT22;56315;-33.902;151.160;2022-10-31T10:59:26;23.80;99.90
44647;DHT22;56315;-33.902;151.160;2022-10-31T11:01:53;23.80;99.90
44647;DHT22;56315;-33.902;151.160;2022-10-31T11:04:27;23.70;99.90
44647;DHT22;56315;-33.902;151.160;2022-10-31T11:07:36;23.70;99.90
44647;DHT22;56315;-33.902;151.160;2022-10-31T11:09:47;23.60;99.90
44647;DHT22;56315;-33.902;151.160;2022-10-31T11:14:56;23.40;99.90
44647;DHT22;56315;-33.902;151.160;2022-10-31T11:17:33;23.30;99.90
44647;DHT22;56315;-33.902;151.160;2022-10-31T11:20:04;23.20;99.90
44647;DHT22;56315;-33.902;151.160;2022-10-31T11:22:31;23.20;99.90
44647;DHT22;56315;-33.902;151.160;2022-10-31T11:24:58;23.10;99.90
44647;DHT22;56315;-33.902;151.160;2022-10-31T11:27:25;23.10;99.90
44647;DHT22;56315;-33.902;151.160;2022-10-31T11:29:52;23.10;99.90
44647;DHT22;56315;-33.902;151.160;2022-10-31T11:32:23;23.10;99.90
44647;DHT22;56315;-33.902;151.160;2022-10-31T11:34:51;23.20;99.90
44647;DHT22;56315;-33.902;151.160;2022-10-31T11:37:26;23.20;99.90
44647;DHT22;56315;-33.902;151.160;2022-10-31T11:39:54;23.20;99.90
44647;DHT22;56315;-33.902;151.160;2022-10-31T11:42:22;23.30;99.90
44647;DHT22;56315;-33.902;151.160;2022-10-31T11:44:49;23.30;99.90
44647;DHT22;56315;-33.902;151.160;2022-10-31T11:47:17;23.30;99.90
44647;DHT22;56315;-33.902;151.160;2022-10-31T11:49:45;23.30;99.90
44647;DHT22;56315;-33.902;151.160;2022-10-31T11:52:16;23.30;99.90
44647;DHT22;56315;-33.902;151.160;2022-10-31T11:54:47;23.30;99.90
44647;DHT22;56315;-33.902;151.160;2022-10-31T11:59:51;23.30;99.90
44647;DHT22;56315;-33.902;151.160;2022-10-31T12:02:18;23.20;99.90
44647;DHT22;56315;-33.902;151.160;2022-10-31T12:05:08;23.20;99.90
44647;DHT22;56315;-33.902;151.160;2022-10-31T12:07:32;23.10;99.90
44647;DHT22;56315;-33.902;151.160;2022-10-31T12:09:59;23.10;99.90
44647;DHT22;56315;-33.902;151.160;2022-10-31T12:15:26;23.00;99.90
44647;DHT22;56315;-33.902;151.160;2022-10-31T12:17:57;22.90;99.90
44647;DHT22;56315;-33.902;151.160;2022-10-31T12:30:19;22.60;99.90
44647;DHT22;56315;-33.902;151.160;2022-10-31T12:45:39;22.10;99.90
44647;DHT22;56315;-33.902;151.160;2022-10-31T12:56:25;21.70;99.90
44647;DHT22;56315;-33.902;151.160;2022-10-31T13:01:02;21.60;99.90
44647;DHT22;56315;-33.902;151.160;2022-10-31T13:03:44;21.60;99.90
44647;DHT22;56315;-33.902;151.160;2022-10-31T13:06:18;21.60;99.90
44647;DHT22;56315;-33.902;151.160;2022-10-31T13:08:47;21.70;99.90
44647;DHT22;56315;-33.902;151.160;2022-10-31T13:11:16;21.70;99.90
44647;DHT22;56315;-33.902;151.160;2022-10-31T13:16:31;21.80;99.90
44647;DHT22;56315;-33.902;151.160;2022-10-31T13:19:22;21.80;99.90
44647;DHT22;56315;-33.902;151.160;2022-10-31T13:24:33;21.90;99.90
44647;DHT22;56315;-33.902;151.160;2022-10-31T13:27:03;22.00;99.90
44647;DHT22;56315;-33.902;151.160;2022-10-31T13:29:36;22.00;99.90
44647;DHT22;56315;-33.902;151.160;2022-10-31T13:32:04;22.10;99.90
44647;DHT22;56315;-33.902;151.160;2022-10-31T13:37:03;22.20;99.90
44647;DHT22;56315;-33.902;151.160;2022-10-31T13:39:46;22.20;99.90
44647;DHT22;56315;-33.902;151.160;2022-10-31T13:44:41;22.30;99.90
44647;DHT22;56315;-33.902;151.160;2022-10-31T13:47:25;22.30;99.90
44647;DHT22;56315;-33.902;151.160;2022-10-31T13:50:02;22.30;99.90
44647;DHT22;56315;-33.902;151.160;2022-10-31T13:52:29;22.40;99.90
44647;DHT22;56315;-33.902;151.160;2022-10-31T13:54:56;22.50;99.90
44647;DHT22;56315;-33.902;151.160;2022-10-31T13:57:33;22.60;99.90
44647;DHT22;56315;-33.902;151.160;2022-10-31T14:00:04;22.70;99.90
44647;DHT22;56315;-33.902;151.160;2022-10-31T14:02:32;22.70;99.90
44647;DHT22;56315;-33.902;151.160;2022-10-31T14:05:00;22.80;99.90
44647;DHT22;56315;-33.902;151.160;2022-10-31T14:07:28;22.80;99.90
44647;DHT22;56315;-33.902;151.160;2022-10-31T14:09:59;22.90;99.90
44647;DHT22;56315;-33.902;151.160;2022-10-31T14:14:59;23.00;99.90
44647;DHT22;56315;-33.902;151.160;2022-10-31T14:17:27;23.10;99.90
44647;DHT22;56315;-33.902;151.160;2022-10-31T14:22:46;23.20;99.90
44647;DHT22;56315;-33.902;151.160;2022-10-31T14:25:26;23.20;99.90
44647;DHT22;56315;-33.902;151.160;2022-10-31T14:27:53;23.20;99.90
44647;DHT22;56315;-33.902;151.160;2022-10-31T14:30:20;23.30;99.90
44647;DHT22;56315;-33.902;151.160;2022-10-31T14:32:52;23.30;99.90
44647;DHT22;56315;-33.902;151.160;2022-10-31T14:35:19;23.30;99.90
44647;DHT22;56315;-33.902;151.160;2022-10-31T14:43:38;23.20;99.90
44647;DHT22;56315;-33.902;151.160;2022-10-31T14:46:30;23.30;99.90
44647;DHT22;56315;-33.902;151.160;2022-10-31T14:51:26;23.30;99.90
44647;DHT22;56315;-33.902;151.160;2022-10-31T14:53:55;23.30;99.90
44647;DHT22;56315;-33.902;151.160;2022-10-31T14:56:26;23.20;99.90
44647;DHT22;56315;-33.902;151.160;2022-10-31T14:58:54;23.20;99.90
44647;DHT22;56315;-33.902;151.160;2022-10-31T15:01:27;23.20;99.90
44647;DHT22;56315;-33.902;151.160;2022-10-31T15:06:39;23.20;99.90
44647;DHT22;56315;-33.902;151.160;2022-10-31T15:09:19;23.20;99.90
44647;DHT22;56315;-33.902;151.160;2022-10-31T15:11:46;23.20;99.90
44647;DHT22;56315;-33.902;151.160;2022-10-31T15:14:23;23.30;99.90
44647;DHT22;56315;-33.902;151.160;2022-10-31T15:16:50;23.20;99.90
44647;DHT22;56315;-33.902;151.160;2022-10-31T15:19:21;23.20;99.90
44647;DHT22;56315;-33.902;151.160;2022-10-31T15:21:50;23.20;99.90
44647;DHT22;56315;-33.902;151.160;2022-10-31T15:24:22;23.20;99.90
44647;DHT22;56315;-33.902;151.160;2022-10-31T15:26:53;23.20;99.90
44647;DHT22;56315;-33.902;151.160;2022-10-31T15:29:22;23.20;99.90
44647;DHT22;56315;-33.902;151.160;2022-10-31T15:34:27;23.20;99.90
44647;DHT22;56315;-33.902;151.160;2022-10-31T15:36:56;23.20;99.90
44647;DHT22;56315;-33.902;151.160;2022-10-31T15:39:22;23.20;99.90
44647;DHT22;56315;-33.902;151.160;2022-10-31T15:41:56;23.10;99.90
44647;DHT22;56315;-33.902;151.160;2022-10-31T15:44:35;23.20;99.90
44647;DHT22;56315;-33.902;151.160;2022-10-31T15:47:07;23.20;99.90
44647;DHT22;56315;-33.902;151.160;2022-10-31T15:49:49;23.20;99.90
44647;DHT22;56315;-33.902;151.160;2022-10-31T15:52:28;23.20;99.90
44647;DHT22;56315;-33.902;151.160;2022-10-31T15:54:57;23.20;99.90
44647;DHT22;56315;-33.902;151.160;2022-10-31T15:57:25;23.20;99.90
44647;DHT22;56315;-33.902;151.160;2022-10-31T15:59:54;23.20;99.90
44647;DHT22;56315;-33.902;151.160;2022-10-31T16:02:22;23.20;99.90
44647;DHT22;56315;-33.902;151.160;2022-10-31T16:04:55;23.20;99.90
44647;DHT22;56315;-33.902;151.160;2022-10-31T16:07:22;23.20;99.90
44647;DHT22;56315;-33.902;151.160;2022-10-31T16:09:56;23.20;99.90
44647;DHT22;56315;-33.902;151.160;2022-10-31T16:12:23;23.10;99.90
44647;DHT22;56315;-33.902;151.160;2022-10-31T16:14:51;23.20;99.90
44647;DHT22;56315;-33.902;151.160;2022-10-31T16:17:20;23.10;99.90
44647;DHT22;56315;-33.902;151.160;2022-10-31T16:19:51;23.10;99.90
44647;DHT22;56315;-33.902;151.160;2022-10-31T16:22:25;23.10;99.90
44647;DHT22;56315;-33.902;151.160;2022-10-31T16:25:09;23.10;99.90
44647;DHT22;56315;-33.902;151.160;2022-10-31T16:27:37;23.10;99.90
44647;DHT22;56315;-33.902;151.160;2022-10-31T16:30:29;23.10;99.90
44647;DHT22;56315;-33.902;151.160;2022-10-31T16:32:59;23.10;99.90
44647;DHT22;56315;-33.902;151.160;2022-10-31T16:35:28;23.00;99.90
44647;DHT22;56315;-33.902;151.160;2022-10-31T16:37:57;23.00;99.90
44647;DHT22;56315;-33.902;151.160;2022-10-31T16:40:24;23.00;99.90
44647;DHT22;56315;-33.902;151.160;2022-10-31T16:42:51;23.00;99.90
44647;DHT22;56315;-33.902;151.160;2022-10-31T16:45:19;23.00;99.90
44647;DHT22;56315;-33.902;151.160;2022-10-31T16:47:46;23.00;99.90
44647;DHT22;56315;-33.902;151.160;2022-10-31T16:50:14;23.00;99.90
44647;DHT22;56315;-33.902;151.160;2022-10-31T16:52:41;23.00;99.90
44647;DHT22;56315;-33.902;151.160;2022-10-31T16:55:10;23.10;99.90
44647;DHT22;56315;-33.902;151.160;2022-10-31T16:57:37;23.10;99.90
44647;DHT22;56315;-33.902;151.160;2022-10-31T17:00:04;23.10;99.90
44647;DHT22;56315;-33.902;151.160;2022-10-31T17:02:30;23.00;99.90